Time;durP1;ratioP1;P1;durP2;ratioP2;P2;SDS_P1;SDS_P2;PMS_P1;PMS_P2;Temp;Humidity;BMP_temperature;BMP_pressure;BME280_temperature;BME280_humidity;BME280_pressure;Samples;Min_cycle;Max_cycle;Signal;HPM_P1;HPM_P2
2024/01/26 00:01:24;;;;;;;0.00;0.00;;;;;;;;;;5013999;28;20175;-84
2024/01/26 00:03:51;;;;;;;0.00;0.00;;;;;;;;;;5012208;28;20112;-84
2024/01/26 00:06:16;;;;;;;0.00;0.00;;;;;;;;;;5012283;28;20026;-84
2024/01/26 00:08:42;;;;;;;0.00;0.00;;;;;;;;;;5013644;28;20022;-84
2024/01/26 00:11:14;;;;;;;0.00;0.00;;;;;;;;;;4995727;28;20033;-83
2024/01/26 00:13:39;;;;;;;0.00;0.00;;;;;;;;;;4980314;28;20100;-83
2024/01/26 00:16:05;;;;;;;0.00;0.00;;;;;;;;;;5012330;28;20447;-84
2024/01/26 00:18:31;;;;;;;0.00;0.00;;;;;;;;;;5013378;28;20092;-84
2024/01/26 00:20:56;;;;;;;0.00;0.00;;;;;;;;;;5013667;28;20363;-84
2024/01/26 00:23:22;;;;;;;0.00;0.00;;;;;;;;;;5011933;28;20030;-82
2024/01/26 00:25:47;;;;;;;0.00;0.00;;;;;;;;;;5013103;28;20100;-84
2024/01/26 00:28:13;;;;;;;0.00;0.00;;;;;;;;;;5014166;28;20068;-82
2024/01/26 00:30:39;;;;;;;0.00;0.00;;;;;;;;;;4983264;28;20030;-83
2024/01/26 00:33:04;;;;;;;0.00;0.00;;;;;;;;;;5017203;28;20136;-82
2024/01/26 00:35:30;;;;;;;0.00;0.00;;;;;;;;;;5015930;28;20026;-82
2024/01/26 00:37:56;;;;;;;0.00;0.00;;;;;;;;;;5016502;28;20359;-82
2024/01/26 00:40:21;;;;;;;0.00;0.00;;;;;;;;;;5003870;28;20025;-82
2024/01/26 00:42:48;;;;;;;0.00;0.00;;;;;;;;;;5020901;28;20432;-82
2024/01/26 00:45:13;;;;;;;0.00;0.00;;;;;;;;;;5000170;28;20034;-82
2024/01/26 00:47:39;;;;;;;0.00;0.00;;;;;;;;;;5016595;28;20022;-82
2024/01/26 00:50:05;;;;;;;0.00;0.00;;;;;;;;;;4999080;28;20052;-85
2024/01/26 00:52:31;;;;;;;0.00;0.00;;;;;;;;;;5016624;28;20470;-84
2024/01/26 00:54:56;;;;;;;0.00;0.00;;;;;;;;;;5016282;28;20125;-84
2024/01/26 00:57:22;;;;;;;0.00;0.00;;;;;;;;;;4998917;28;20495;-84
2024/01/26 00:59:48;;;;;;;0.00;0.00;;;;;;;;;;4998753;28;20037;-82
2024/01/26 01:02:14;;;;;;;0.00;0.00;;;;;;;;;;5015165;28;20032;-84
2024/01/26 01:04:40;;;;;;;0.00;0.00;;;;;;;;;;4998801;28;20041;-84
2024/01/26 01:07:05;;;;;;;0.00;0.00;;;;;;;;;;5015158;28;20053;-82
2024/01/26 01:09:31;;;;;;;0.00;0.00;;;;;;;;;;5016131;28;20448;-84
2024/01/26 01:11:57;;;;;;;0.00;0.00;;;;;;;;;;5014872;28;20440;-84
2024/01/26 01:14:23;;;;;;;0.00;0.00;;;;;;;;;;5016092;28;20029;-84
2024/01/26 01:16:50;;;;;;;0.00;0.00;;;;;;;;;;5016063;28;20030;-83
2024/01/26 01:19:16;;;;;;;0.00;0.00;;;;;;;;;;4983004;28;20424;-83
2024/01/26 01:21:41;;;;;;;0.00;0.00;;;;;;;;;;5014524;28;20105;-83
2024/01/26 01:24:07;;;;;;;0.00;0.00;;;;;;;;;;5014810;28;20030;-84
2024/01/26 01:26:32;;;;;;;0.00;0.00;;;;;;;;;;5015988;28;20033;-83
2024/01/26 01:28:58;;;;;;;0.00;0.00;;;;;;;;;;5015881;28;20383;-83
2024/01/26 01:31:23;;;;;;;0.00;0.00;;;;;;;;;;5014669;28;20044;-84
2024/01/26 01:33:49;;;;;;;0.00;0.00;;;;;;;;;;5014573;28;20033;-84
2024/01/26 01:36:16;;;;;;;0.00;0.00;;;;;;;;;;4998131;28;20049;-83
2024/01/26 01:38:42;;;;;;;0.00;0.00;;;;;;;;;;5015574;28;20049;-84
2024/01/26 01:41:07;;;;;;;0.00;0.00;;;;;;;;;;4981199;28;20367;-83
2024/01/26 01:43:33;;;;;;;0.00;0.00;;;;;;;;;;5015331;28;20033;-83
2024/01/26 01:45:58;;;;;;;0.00;0.00;;;;;;;;;;5014036;28;20149;-84
2024/01/26 01:48:24;;;;;;;0.00;0.00;;;;;;;;;;5015904;28;20037;-84
2024/01/26 01:50:49;;;;;;;0.00;0.00;;;;;;;;;;5013730;28;20049;-84
2024/01/26 01:53:15;;;;;;;0.00;0.00;;;;;;;;;;5014177;28;20455;-83
2024/01/26 01:55:44;;;;;;;0.00;0.00;;;;;;;;;;4997843;28;20033;-83
2024/01/26 01:58:09;;;;;;;0.00;0.00;;;;;;;;;;4981500;28;20507;-84
2024/01/26 02:00:36;;;;;;;0.00;0.00;;;;;;;;;;4997861;28;20034;-84
2024/01/26 02:03:02;;;;;;;0.00;0.00;;;;;;;;;;5014028;28;20034;-83
2024/01/26 02:05:28;;;;;;;0.00;0.00;;;;;;;;;;5013602;28;20029;-84
2024/01/26 02:07:53;;;;;;;0.00;0.00;;;;;;;;;;5015027;28;20078;-84
2024/01/26 02:10:19;;;;;;;0.00;0.00;;;;;;;;;;4997579;28;20143;-84
2024/01/26 02:12:44;;;;;;;0.00;0.00;;;;;;;;;;4981481;28;20133;-84
2024/01/26 02:15:10;;;;;;;0.00;0.00;;;;;;;;;;4997433;28;20034;-84
2024/01/26 02:17:36;;;;;;;0.00;0.00;;;;;;;;;;4997374;28;20022;-83
2024/01/26 02:20:04;;;;;;;0.00;0.00;;;;;;;;;;4981190;28;20029;-83
2024/01/26 02:22:29;;;;;;;0.00;0.00;;;;;;;;;;5013678;28;20030;-83
2024/01/26 02:24:55;;;;;;;0.00;0.00;;;;;;;;;;4997214;28;20052;-83
2024/01/26 02:27:21;;;;;;;0.00;0.00;;;;;;;;;;4981278;28;20439;-83
2024/01/26 02:29:47;;;;;;;0.00;0.00;;;;;;;;;;5013420;28;20107;-83
2024/01/26 02:32:12;;;;;;;0.00;0.00;;;;;;;;;;5014715;28;20515;-84
2024/01/26 02:34:38;;;;;;;0.00;0.00;;;;;;;;;;5013374;28;20026;-83
2024/01/26 02:37:03;;;;;;;0.00;0.00;;;;;;;;;;4997028;28;20018;-83
2024/01/26 02:39:29;;;;;;;0.00;0.00;;;;;;;;;;4997066;28;20025;-84
2024/01/26 02:41:55;;;;;;;0.00;0.00;;;;;;;;;;4980730;28;20129;-84
2024/01/26 02:44:22;;;;;;;0.00;0.00;;;;;;;;;;4996796;28;20033;-83
2024/01/26 02:46:47;;;;;;;0.00;0.00;;;;;;;;;;5013196;28;20036;-82
2024/01/26 02:49:13;;;;;;;0.00;0.00;;;;;;;;;;4996427;28;20129;-84
2024/01/26 02:51:38;;;;;;;0.00;0.00;;;;;;;;;;5012931;28;20057;-84
2024/01/26 02:54:04;;;;;;;0.00;0.00;;;;;;;;;;4996843;28;20681;-84
2024/01/26 02:56:29;;;;;;;0.00;0.00;;;;;;;;;;4980418;28;20037;-84
2024/01/26 02:58:55;;;;;;;0.00;0.00;;;;;;;;;;4980561;28;20021;-83
2024/01/26 03:01:20;;;;;;;0.00;0.00;;;;;;;;;;5013158;28;20037;-83
2024/01/26 03:03:46;;;;;;;0.00;0.00;;;;;;;;;;5012528;28;20030;-83
2024/01/26 03:06:12;;;;;;;0.00;0.00;;;;;;;;;;4980706;28;20033;-83
2024/01/26 03:08:38;;;;;;;0.00;0.00;;;;;;;;;;4980819;28;20052;-84
2024/01/26 03:11:05;;;;;;;0.00;0.00;;;;;;;;;;4996490;28;20041;-83
2024/01/26 03:13:30;;;;;;;0.00;0.00;;;;;;;;;;5013965;28;20052;-84
2024/01/26 03:15:56;;;;;;;0.00;0.00;;;;;;;;;;5013933;28;20025;-83
2024/01/26 03:18:21;;;;;;;0.00;0.00;;;;;;;;;;5013732;28;20092;-84
2024/01/26 03:20:47;;;;;;;0.00;0.00;;;;;;;;;;5014189;28;20137;-83
2024/01/26 03:23:12;;;;;;;0.00;0.00;;;;;;;;;;5013896;28;20036;-83
2024/01/26 03:25:38;;;;;;;0.00;0.00;;;;;;;;;;4980320;28;20088;-83
2024/01/26 03:28:05;;;;;;;0.00;0.00;;;;;;;;;;5013812;28;20092;-84
2024/01/26 03:30:31;;;;;;;0.00;0.00;;;;;;;;;;5013785;28;20456;-83
2024/01/26 03:32:57;;;;;;;0.00;0.00;;;;;;;;;;5013270;28;20037;-83
2024/01/26 03:35:23;;;;;;;0.00;0.00;;;;;;;;;;5014298;28;20034;-84
2024/01/26 03:37:48;;;;;;;0.00;0.00;;;;;;;;;;5014091;28;20040;-84
2024/01/26 03:40:14;;;;;;;0.00;0.00;;;;;;;;;;5014992;28;20038;-84
2024/01/26 03:42:40;;;;;;;0.00;0.00;;;;;;;;;;5013212;28;20043;-84
2024/01/26 03:45:07;;;;;;;0.00;0.00;;;;;;;;;;4997313;28;20034;-84
2024/01/26 03:47:32;;;;;;;0.00;0.00;;;;;;;;;;5014399;28;20034;-83
2024/01/26 03:49:58;;;;;;;0.00;0.00;;;;;;;;;;5012721;28;20046;-82
2024/01/26 03:52:23;;;;;;;0.00;0.00;;;;;;;;;;5017575;28;20082;-83
2024/01/26 03:54:49;;;;;;;0.00;0.00;;;;;;;;;;5032029;28;20095;-83
2024/01/26 03:57:14;;;;;;;0.00;0.00;;;;;;;;;;5025415;28;20185;-84
2024/01/26 03:59:40;;;;;;;0.00;0.00;;;;;;;;;;5029827;28;20026;-82
2024/01/26 04:02:05;;;;;;;0.00;0.00;;;;;;;;;;5029879;28;20014;-83
2024/01/26 04:04:31;;;;;;;0.00;0.00;;;;;;;;;;5034101;28;20132;-82
2024/01/26 04:06:56;;;;;;;0.00;0.00;;;;;;;;;;5029350;28;20344;-83
2024/01/26 04:09:22;;;;;;;0.00;0.00;;;;;;;;;;5016011;28;20030;-83
2024/01/26 04:11:47;;;;;;;0.00;0.00;;;;;;;;;;4999977;28;20022;-84
2024/01/26 04:14:13;;;;;;;0.00;0.00;;;;;;;;;;5015962;28;20025;-83
2024/01/26 04:16:38;;;;;;;0.00;0.00;;;;;;;;;;5000879;28;20128;-83
2024/01/26 04:19:04;;;;;;;0.00;0.00;;;;;;;;;;5021389;28;20045;-84
2024/01/26 04:21:29;;;;;;;0.00;0.00;;;;;;;;;;5018904;28;20030;-83
2024/01/26 04:23:55;;;;;;;0.00;0.00;;;;;;;;;;5020167;28;20044;-83
2024/01/26 04:26:21;;;;;;;0.00;0.00;;;;;;;;;;5016255;28;20034;-84
2024/01/26 04:28:46;;;;;;;0.00;0.00;;;;;;;;;;5015667;28;20308;-83
2024/01/26 04:31:12;;;;;;;0.00;0.00;;;;;;;;;;5016971;28;20026;-84
2024/01/26 04:33:38;;;;;;;0.00;0.00;;;;;;;;;;5016812;28;20026;-84
2024/01/26 04:36:07;;;;;;;0.00;0.00;;;;;;;;;;4999292;28;20025;-83
2024/01/26 04:38:32;;;;;;;0.00;0.00;;;;;;;;;;5016925;28;20026;-84
2024/01/26 04:40:58;;;;;;;0.00;0.00;;;;;;;;;;5016527;28;20124;-84
2024/01/26 04:43:26;;;;;;;0.00;0.00;;;;;;;;;;4983227;28;20026;-83
2024/01/26 04:45:51;;;;;;;0.00;0.00;;;;;;;;;;4982832;28;20037;-83
2024/01/26 04:48:17;;;;;;;0.00;0.00;;;;;;;;;;5016524;28;20030;-84
2024/01/26 04:50:42;;;;;;;0.00;0.00;;;;;;;;;;5015373;28;20046;-83
2024/01/26 04:53:08;;;;;;;0.00;0.00;;;;;;;;;;5016426;28;20080;-84
2024/01/26 04:55:35;;;;;;;0.00;0.00;;;;;;;;;;5017238;28;20050;-83
2024/01/26 04:58:01;;;;;;;0.00;0.00;;;;;;;;;;5016268;28;20447;-82
2024/01/26 05:00:27;;;;;;;0.00;0.00;;;;;;;;;;5014964;28;20053;-83
2024/01/26 05:02:52;;;;;;;0.00;0.00;;;;;;;;;;5015191;28;20034;-83
2024/01/26 05:05:18;;;;;;;0.00;0.00;;;;;;;;;;4998828;28;20038;-83
2024/01/26 05:07:43;;;;;;;0.00;0.00;;;;;;;;;;4998801;28;20030;-85
2024/01/26 05:10:11;;;;;;;0.00;0.00;;;;;;;;;;4998789;28;20037;-83
2024/01/26 05:12:36;;;;;;;0.00;0.00;;;;;;;;;;4998846;28;20103;-83
2024/01/26 05:15:02;;;;;;;0.00;0.00;;;;;;;;;;5013379;28;20033;-84
2024/01/26 05:17:28;;;;;;;0.00;0.00;;;;;;;;;;4982523;28;20040;-83
2024/01/26 05:19:53;;;;;;;0.00;0.00;;;;;;;;;;4998801;28;20030;-84
2024/01/26 05:22:19;;;;;;;0.00;0.00;;;;;;;;;;4998526;28;20829;-84
2024/01/26 05:24:45;;;;;;;0.00;0.00;;;;;;;;;;5014497;28;20038;-83
2024/01/26 05:27:11;;;;;;;0.00;0.00;;;;;;;;;;5014531;28;20099;-83
2024/01/26 05:29:36;;;;;;;0.00;0.00;;;;;;;;;;5015351;28;20112;-84
2024/01/26 05:32:02;;;;;;;0.00;0.00;;;;;;;;;;4998424;28;20443;-83
2024/01/26 05:34:27;;;;;;;0.00;0.00;;;;;;;;;;5014248;28;20423;-84
2024/01/26 05:36:53;;;;;;;0.00;0.00;;;;;;;;;;4998081;28;20052;-85
2024/01/26 05:39:19;;;;;;;0.00;0.00;;;;;;;;;;4998758;28;20036;-86
2024/01/26 05:41:44;;;;;;;0.00;0.00;;;;;;;;;;4998456;28;20030;-83
2024/01/26 05:44:10;;;;;;;0.00;0.00;;;;;;;;;;5015035;28;20072;-85
2024/01/26 05:46:35;;;;;;;0.00;0.00;;;;;;;;;;4997757;28;20026;-84
2024/01/26 05:49:01;;;;;;;0.00;0.00;;;;;;;;;;5013646;28;20344;-84
2024/01/26 05:51:26;;;;;;;0.00;0.00;;;;;;;;;;5012223;28;20092;-83
2024/01/26 05:53:52;;;;;;;0.00;0.00;;;;;;;;;;4996175;28;20038;-84
2024/01/26 05:56:18;;;;;;;0.00;0.00;;;;;;;;;;5013446;28;20121;-84
2024/01/26 05:58:45;;;;;;;0.00;0.00;;;;;;;;;;5013816;28;20128;-84
2024/01/26 06:01:25;;;;;;;0.00;0.00;;;;;;;;;;5009441;28;20091;-82
2024/01/26 06:03:57;;;;;;;;;;;;;;;;;;5010846;28;20057;-85
2024/01/26 06:06:22;;;;;;;0.00;0.00;;;;;;;;;;5002891;28;19917;-83
2024/01/26 06:08:55;;;;;;;0.00;0.00;;;;;;;;;;5012880;28;20471;-84
2024/01/26 06:11:22;;;;;;;0.00;0.00;;;;;;;;;;4999490;28;20710;-85
2024/01/26 06:13:47;;;;;;;0.00;0.00;;;;;;;;;;4994348;28;20091;-84
2024/01/26 06:16:15;;;;;;;0.00;0.00;;;;;;;;;;5011551;28;20177;-86
2024/01/26 06:18:45;;;;;;;0.00;0.00;;;;;;;;;;5011086;28;20026;-83
2024/01/26 06:21:11;;;;;;;0.00;0.00;;;;;;;;;;5009620;28;20065;-85
2024/01/26 06:23:38;;;;;;;0.00;0.00;;;;;;;;;;5008583;28;20123;-85
2024/01/26 06:26:03;;;;;;;0.00;0.00;;;;;;;;;;5009071;28;20061;-84
2024/01/26 06:28:29;;;;;;;0.00;0.00;;;;;;;;;;5014541;28;20455;-85
2024/01/26 06:31:03;;;;;;;0.00;0.00;;;;;;;;;;5019799;28;20476;-85
2024/01/26 06:33:29;;;;;;;0.00;0.00;;;;;;;;;;5013949;28;20044;-83
2024/01/26 06:35:54;;;;;;;0.00;0.00;;;;;;;;;;5011733;28;20040;-84
2024/01/26 06:38:20;;;;;;;0.00;0.00;;;;;;;;;;5012751;28;20057;-87
2024/01/26 06:40:46;;;;;;;0.00;0.00;;;;;;;;;;5013120;28;20041;-85
2024/01/26 06:43:16;;;;;;;0.00;0.00;;;;;;;;;;5013653;28;20100;-85
2024/01/26 06:45:42;;;;;;;0.00;0.00;;;;;;;;;;5012507;28;20034;-86
2024/01/26 06:48:08;;;;;;;0.00;0.00;;;;;;;;;;5014041;28;20087;-84
2024/01/26 06:50:34;;;;;;;0.00;0.00;;;;;;;;;;5009222;28;20448;-85
2024/01/26 06:53:00;;;;;;;0.00;0.00;;;;;;;;;;5014131;28;20038;-85
2024/01/26 06:55:33;;;;;;;0.00;0.00;;;;;;;;;;5000682;28;20044;-85
2024/01/26 06:57:58;;;;;;;0.00;0.00;;;;;;;;;;5001927;28;20450;-83
2024/01/26 07:00:25;;;;;;;0.00;0.00;;;;;;;;;;5007547;28;20121;-80
2024/01/26 07:02:51;;;;;;;0.00;0.00;;;;;;;;;;5008677;28;20029;-82
2024/01/26 07:05:16;;;;;;;0.00;0.00;;;;;;;;;;5015893;28;20045;-82
2024/01/26 07:07:42;;;;;;;0.00;0.00;;;;;;;;;;5013991;28;20455;-85
2024/01/26 07:10:11;;;;;;;0.00;0.00;;;;;;;;;;5011812;28;20026;-83
2024/01/26 07:12:37;;;;;;;0.00;0.00;;;;;;;;;;5023531;28;20030;-86
2024/01/26 07:15:05;;;;;;;0.00;0.00;;;;;;;;;;5013909;28;20029;-84
2024/01/26 07:17:31;;;;;;;0.00;0.00;;;;;;;;;;5014506;28;20026;-83
2024/01/26 07:20:00;;;;;;;0.00;0.00;;;;;;;;;;5009890;28;20045;-84
2024/01/26 07:22:25;;;;;;;0.00;0.00;;;;;;;;;;4985323;28;20450;-84
2024/01/26 07:24:51;;;;;;;0.00;0.00;;;;;;;;;;4994573;28;20034;-87
2024/01/26 07:27:16;;;;;;;0.00;0.00;;;;;;;;;;5005914;28;20910;-86
2024/01/26 07:29:42;;;;;;;0.00;0.00;;;;;;;;;;5010076;28;20103;-84
2024/01/26 07:32:07;;;;;;;0.00;0.00;;;;;;;;;;5013852;28;20034;-85
2024/01/26 07:34:33;;;;;;;0.00;0.00;;;;;;;;;;5019086;28;20056;-86
2024/01/26 07:36:58;;;;;;;0.00;0.00;;;;;;;;;;5018656;28;20439;-89
2024/01/26 07:39:26;;;;;;;0.00;0.00;;;;;;;;;;5019567;28;20042;-90
2024/01/26 07:41:52;;;;;;;0.00;0.00;;;;;;;;;;5004076;28;20037;-88
2024/01/26 07:44:18;;;;;;;0.00;0.00;;;;;;;;;;5020038;28;20034;-85
2024/01/26 07:46:45;;;;;;;0.00;0.00;;;;;;;;;;5002898;28;20070;-89
2024/01/26 07:49:11;;;;;;;0.00;0.00;;;;;;;;;;5003199;28;20085;-89
2024/01/26 07:51:37;;;;;;;0.00;0.00;;;;;;;;;;5006058;28;20054;-88
2024/01/26 07:54:03;;;;;;;0.00;0.00;;;;;;;;;;4973300;28;20049;-87
2024/01/26 07:59:00;;;;;;;0.00;0.00;;;;;;;;;;5084007;23;20060;-91
2024/01/26 08:01:26;;;;;;;0.00;0.00;;;;;;;;;;5000217;28;20485;-90
2024/01/26 08:03:52;;;;;;;0.00;0.00;;;;;;;;;;5028245;28;20120;-86
2024/01/26 08:06:20;;;;;;;0.00;0.00;;;;;;;;;;5012402;28;20056;-90
2024/01/26 08:08:46;;;;;;;0.00;0.00;;;;;;;;;;5000497;28;20021;-92
2024/01/26 08:11:11;;;;;;;0.00;0.00;;;;;;;;;;4994397;28;20941;-88
2024/01/26 08:13:40;;;;;;;0.00;0.00;;;;;;;;;;5027857;28;20034;-92
2024/01/26 08:16:05;;;;;;;0.00;0.00;;;;;;;;;;5008270;28;20469;-87
2024/01/26 08:18:31;;;;;;;0.00;0.00;;;;;;;;;;4993513;28;20177;-86
2024/01/26 08:21:20;;;;;;;0.00;0.00;;;;;;;;;;5013049;28;20111;-90
2024/01/26 08:23:58;;;;;;;0.00;0.00;;;;;;;;;;5028378;28;20025;-89
2024/01/26 08:26:43;;;;;;;0.00;0.00;;;;;;;;;;5040439;28;20141;-89
2024/01/26 08:29:09;;;;;;;0.00;0.00;;;;;;;;;;5007613;28;20031;-89
2024/01/26 08:31:34;;;;;;;0.00;0.00;;;;;;;;;;5008896;28;20072;-89
2024/01/26 08:34:00;;;;;;;0.00;0.00;;;;;;;;;;5003042;28;20029;-89
2024/01/26 08:36:25;;;;;;;0.00;0.00;;;;;;;;;;5013391;28;20021;-89
2024/01/26 08:38:54;;;;;;;0.00;0.00;;;;;;;;;;5024932;28;20046;-90
2024/01/26 08:41:21;;;;;;;0.00;0.00;;;;;;;;;;5041935;28;20025;-89
2024/01/26 08:44:03;;;;;;;0.00;0.00;;;;;;;;;;5023572;28;20010;-89
2024/01/26 08:46:29;;;;;;;0.00;0.00;;;;;;;;;;5010790;28;20038;-87
2024/01/26 08:48:55;;;;;;;0.00;0.00;;;;;;;;;;5004483;28;20032;-86
2024/01/26 08:51:23;;;;;;;0.00;0.00;;;;;;;;;;5044734;28;20037;-88
2024/01/26 08:53:52;;;;;;;0.00;0.00;;;;;;;;;;5005038;28;20026;-87
2024/01/26 08:56:21;;;;;;;0.00;0.00;;;;;;;;;;5003261;28;20073;-90
2024/01/26 08:58:50;;;;;;;0.00;0.00;;;;;;;;;;5020680;28;20042;-90
2024/01/26 09:01:16;;;;;;;0.00;0.00;;;;;;;;;;5015772;28;20083;-91
2024/01/26 09:03:42;;;;;;;0.00;0.00;;;;;;;;;;4987887;23;20332;-88
2024/01/26 09:06:09;;;;;;;0.00;0.00;;;;;;;;;;4958331;28;20030;-87
2024/01/26 09:08:35;;;;;;;0.00;0.00;;;;;;;;;;4999409;28;20071;-87
2024/01/26 09:11:01;;;;;;;0.08;0.00;;;;;;;;;;4981105;28;20139;-88
2024/01/26 09:16:14;;;;;;;0.00;0.00;;;;;;;;;;5052053;23;20462;-85
2024/01/26 09:18:39;;;;;;;0.00;0.00;;;;;;;;;;4993986;28;20099;-88
2024/01/26 09:21:05;;;;;;;0.00;0.00;;;;;;;;;;5034104;28;20056;-87
2024/01/26 09:23:31;;;;;;;0.00;0.00;;;;;;;;;;4973178;28;20030;-85
2024/01/26 09:25:58;;;;;;;0.00;0.00;;;;;;;;;;4982029;28;20117;-85
2024/01/26 09:28:24;;;;;;;0.00;0.00;;;;;;;;;;5005322;28;20056;-91
2024/01/26 09:30:50;;;;;;;0.00;0.00;;;;;;;;;;4999252;28;20095;-87
2024/01/26 09:33:15;;;;;;;0.00;0.00;;;;;;;;;;5003440;28;20049;-90
2024/01/26 09:35:41;;;;;;;0.00;0.00;;;;;;;;;;5012370;23;20053;-88
2024/01/26 09:38:07;;;;;;;0.00;0.00;;;;;;;;;;5021980;28;20504;-86
2024/01/26 09:40:36;;;;;;;0.00;0.00;;;;;;;;;;5041728;28;20049;-90
2024/01/26 09:43:01;;;;;;;0.00;0.00;;;;;;;;;;5011915;28;20480;-88
2024/01/26 09:45:30;;;;;;;0.00;0.00;;;;;;;;;;5021020;28;20036;-86
2024/01/26 09:47:56;;;;;;;0.00;0.00;;;;;;;;;;5059422;28;20151;-87
2024/01/26 09:50:21;;;;;;;0.00;0.00;;;;;;;;;;5032059;28;20025;-88
2024/01/26 09:52:47;;;;;;;0.00;0.00;;;;;;;;;;5005363;28;20025;-85
2024/01/26 09:55:13;;;;;;;0.00;0.00;;;;;;;;;;5043332;28;20039;-84
2024/01/26 09:57:39;;;;;;;0.00;0.00;;;;;;;;;;5026883;28;20028;-88
2024/01/26 10:00:08;;;;;;;0.00;0.00;;;;;;;;;;5027099;28;20030;-88
2024/01/26 10:02:33;;;;;;;0.00;0.00;;;;;;;;;;5057995;28;20360;-87
2024/01/26 10:04:59;;;;;;;0.00;0.00;;;;;;;;;;5041285;28;20029;-91
2024/01/26 10:07:24;;;;;;;0.00;0.00;;;;;;;;;;5003767;28;20502;-89
2024/01/26 10:09:50;;;;;;;0.00;0.00;;;;;;;;;;5056887;28;20057;-87
2024/01/26 10:12:16;;;;;;;0.00;0.00;;;;;;;;;;5023700;28;20143;-89
2024/01/26 10:14:43;;;;;;;0.00;0.00;;;;;;;;;;5038363;28;20025;-87
2024/01/26 10:17:08;;;;;;;0.00;0.00;;;;;;;;;;5019416;28;20032;-89
2024/01/26 10:19:36;;;;;;;0.00;0.00;;;;;;;;;;5033308;28;20028;-89
2024/01/26 10:22:06;;;;;;;0.00;0.00;;;;;;;;;;5048779;28;20047;-89
2024/01/26 10:24:48;;;;;;;0.00;0.00;;;;;;;;;;5028152;28;20040;-89
2024/01/26 10:27:13;;;;;;;0.00;0.00;;;;;;;;;;5031060;28;20041;-90
2024/01/26 10:29:39;;;;;;;0.00;0.00;;;;;;;;;;5014716;28;20092;-87
2024/01/26 10:32:06;;;;;;;0.00;0.00;;;;;;;;;;5037375;28;20381;-83
2024/01/26 10:34:31;;;;;;;0.00;0.00;;;;;;;;;;5016363;28;20136;-88
2024/01/26 10:36:57;;;;;;;0.00;0.00;;;;;;;;;;5010946;28;20117;-85
2024/01/26 10:39:23;;;;;;;0.00;0.00;;;;;;;;;;5019208;28;20117;-87
2024/01/26 10:41:52;;;;;;;0.00;0.00;;;;;;;;;;5015959;28;20486;-86
2024/01/26 10:44:29;;;;;;;0.00;0.00;;;;;;;;;;4991624;28;20030;-85
2024/01/26 10:46:56;;;;;;;0.00;0.00;;;;;;;;;;5001902;28;20045;-88
2024/01/26 10:49:22;;;;;;;0.00;0.00;;;;;;;;;;5020073;28;20026;-86
2024/01/26 10:51:48;;;;;;;0.00;0.00;;;;;;;;;;5111602;23;20053;-86
2024/01/26 10:54:14;;;;;;;0.00;0.00;;;;;;;;;;4981872;28;20034;-89
2024/01/26 10:56:39;;;;;;;0.00;0.00;;;;;;;;;;5000760;28;20026;-90
2024/01/26 10:59:10;;;;;;;0.00;0.00;;;;;;;;;;4997328;28;20031;-89
2024/01/26 11:01:38;;;;;;;;;;;;;;;;;;4993094;28;20102;-90
2024/01/26 11:04:04;;;;;;;0.00;0.00;;;;;;;;;;5017908;28;19952;-86
2024/01/26 11:06:32;;;;;;;0.00;0.00;;;;;;;;;;5018960;28;20029;-89
2024/01/26 11:09:09;;;;;;;0.10;0.00;;;;;;;;;;5020350;28;20068;-89
2024/01/26 11:11:38;;;;;;;0.00;0.00;;;;;;;;;;5027978;28;20030;-86
2024/01/26 11:14:04;;;;;;;0.00;0.00;;;;;;;;;;5032212;28;20363;-88
2024/01/26 11:16:47;;;;;;;0.00;0.00;;;;;;;;;;5034159;28;20018;-88
2024/01/26 11:19:22;;;;;;;0.00;0.00;;;;;;;;;;5023045;28;20030;-84
2024/01/26 11:21:49;;;;;;;0.00;0.00;;;;;;;;;;5020350;28;20105;-86
2024/01/26 11:24:17;;;;;;;0.00;0.00;;;;;;;;;;5000336;28;20403;-87
2024/01/26 11:26:54;;;;;;;0.00;0.00;;;;;;;;;;5016316;28;20025;-89
2024/01/26 11:29:25;;;;;;;0.00;0.00;;;;;;;;;;5017515;28;20091;-89
2024/01/26 11:31:51;;;;;;;0.00;0.00;;;;;;;;;;5016856;28;20034;-84
2024/01/26 11:34:21;;;;;;;0.00;0.00;;;;;;;;;;5035408;28;20315;-88
2024/01/26 11:36:47;;;;;;;0.00;0.00;;;;;;;;;;5004328;28;20096;-89
2024/01/26 11:39:14;;;;;;;0.00;0.00;;;;;;;;;;5017928;28;20064;-90
2024/01/26 11:41:44;;;;;;;0.00;0.00;;;;;;;;;;5012347;28;20107;-88
2024/01/26 11:44:20;;;;;;;0.00;0.00;;;;;;;;;;4999034;28;20340;-90
2024/01/26 11:46:46;;;;;;;0.00;0.00;;;;;;;;;;5000731;28;20033;-92
2024/01/26 11:49:11;;;;;;;0.00;0.00;;;;;;;;;;5002261;28;20063;-92
2024/01/26 11:51:37;;;;;;;0.00;0.00;;;;;;;;;;5002547;28;20045;-85
2024/01/26 11:54:03;;;;;;;0.00;0.00;;;;;;;;;;5001265;28;20033;-90
2024/01/26 11:56:28;;;;;;;0.00;0.00;;;;;;;;;;5014157;28;20132;-87
2024/01/26 11:58:54;;;;;;;0.00;0.00;;;;;;;;;;4996227;28;20410;-86
2024/01/26 12:01:21;;;;;;;0.00;0.00;;;;;;;;;;4978456;28;20033;-84
2024/01/26 12:03:47;;;;;;;0.00;0.00;;;;;;;;;;4962271;28;20041;-90
2024/01/26 12:06:12;;;;;;;0.00;0.00;;;;;;;;;;5011217;28;20026;-84
2024/01/26 12:08:38;;;;;;;0.00;0.00;;;;;;;;;;4994782;28;20053;-86
2024/01/26 12:11:04;;;;;;;0.00;0.00;;;;;;;;;;5011987;28;20045;-85
2024/01/26 12:13:30;;;;;;;0.30;0.00;;;;;;;;;;5021123;28;20116;-87
2024/01/26 12:15:57;;;;;;;0.00;0.00;;;;;;;;;;5014155;28;20048;-89
2024/01/26 12:18:23;;;;;;;0.00;0.00;;;;;;;;;;5033372;28;20036;-87
2024/01/26 12:20:50;;;;;;;0.00;0.00;;;;;;;;;;5010219;28;20034;-87
2024/01/26 12:23:19;;;;;;;0.00;0.00;;;;;;;;;;4999238;28;20041;-86
2024/01/26 12:25:45;;;;;;;0.00;0.00;;;;;;;;;;5009007;28;20184;-86
2024/01/26 12:28:15;;;;;;;0.00;0.00;;;;;;;;;;4999455;28;20029;-89
2024/01/26 12:30:45;;;;;;;0.00;0.00;;;;;;;;;;4995177;28;20036;-86
2024/01/26 12:33:10;;;;;;;0.00;0.00;;;;;;;;;;5019843;28;20354;-89
2024/01/26 12:35:40;;;;;;;0.00;0.00;;;;;;;;;;5019188;28;20100;-90
2024/01/26 12:38:08;;;;;;;0.00;0.00;;;;;;;;;;4999831;28;20033;-91
2024/01/26 12:40:34;;;;;;;0.00;0.00;;;;;;;;;;5000320;28;20034;-85
2024/01/26 12:43:02;;;;;;;0.00;0.00;;;;;;;;;;4999289;28;20038;-87
2024/01/26 12:45:28;;;;;;;0.00;0.00;;;;;;;;;;4999498;28;20033;-86
2024/01/26 12:47:54;;;;;;;0.00;0.00;;;;;;;;;;5015658;28;20091;-85
2024/01/26 12:50:20;;;;;;;0.00;0.00;;;;;;;;;;5016531;28;20034;-87
2024/01/26 12:52:45;;;;;;;0.00;0.00;;;;;;;;;;4998878;28;20053;-85
2024/01/26 12:55:11;;;;;;;0.00;0.00;;;;;;;;;;5015389;28;20029;-86
2024/01/26 12:57:37;;;;;;;0.00;0.00;;;;;;;;;;5013858;28;20608;-91
2024/01/26 13:00:03;;;;;;;0.00;0.00;;;;;;;;;;5016184;28;20026;-87
2024/01/26 13:02:28;;;;;;;0.00;0.00;;;;;;;;;;4983347;28;20045;-88
2024/01/26 13:04:54;;;;;;;0.00;0.00;;;;;;;;;;5015931;28;20375;-88
2024/01/26 13:07:21;;;;;;;0.00;0.00;;;;;;;;;;5000452;28;20381;-89
2024/01/26 13:09:48;;;;;;;0.00;0.00;;;;;;;;;;5000692;28;20037;-88
2024/01/26 13:12:14;;;;;;;0.00;0.00;;;;;;;;;;4999879;28;20132;-85
2024/01/26 13:14:40;;;;;;;0.00;0.00;;;;;;;;;;4999944;28;20523;-89
2024/01/26 13:17:07;;;;;;;0.00;0.00;;;;;;;;;;5017554;28;20030;-87
2024/01/26 13:19:32;;;;;;;0.00;0.00;;;;;;;;;;4985221;28;20034;-88
2024/01/26 13:21:59;;;;;;;0.00;0.00;;;;;;;;;;5001186;28;20030;-87
2024/01/26 13:24:25;;;;;;;0.00;0.00;;;;;;;;;;5002172;28;20123;-91
2024/01/26 13:26:50;;;;;;;0.00;0.00;;;;;;;;;;5013893;28;20409;-87
2024/01/26 13:29:16;;;;;;;0.00;0.00;;;;;;;;;;5015422;28;20030;-88
2024/01/26 13:31:41;;;;;;;0.00;0.00;;;;;;;;;;4984966;28;20032;-90
2024/01/26 13:34:10;;;;;;;0.00;0.00;;;;;;;;;;5018215;28;20107;-92
2024/01/26 13:36:36;;;;;;;0.00;0.00;;;;;;;;;;4999797;28;20033;-91
2024/01/26 13:39:04;;;;;;;0.00;0.00;;;;;;;;;;5017902;28;20183;-91
2024/01/26 13:41:30;;;;;;;0.00;0.00;;;;;;;;;;5018283;28;20022;-90
2024/01/26 13:43:55;;;;;;;0.00;0.00;;;;;;;;;;5001972;28;20376;-88
2024/01/26 13:46:21;;;;;;;0.00;0.00;;;;;;;;;;5000220;28;20034;-88
2024/01/26 13:48:46;;;;;;;0.00;0.00;;;;;;;;;;4999031;28;20033;-88
2024/01/26 13:51:12;;;;;;;0.00;0.00;;;;;;;;;;5017459;28;20744;-90
2024/01/26 13:53:37;;;;;;;0.00;0.00;;;;;;;;;;5017962;28;20029;-88
2024/01/26 13:56:04;;;;;;;0.00;0.00;;;;;;;;;;5017398;28;20029;-89
2024/01/26 13:58:30;;;;;;;0.00;0.00;;;;;;;;;;5016682;28;20341;-85
2024/01/26 14:00:55;;;;;;;0.00;0.00;;;;;;;;;;5015879;28;20134;-89
2024/01/26 14:03:21;;;;;;;0.00;0.00;;;;;;;;;;4998993;28;20040;-84
2024/01/26 14:05:46;;;;;;;0.00;0.00;;;;;;;;;;5015808;28;20353;-88
2024/01/26 14:08:12;;;;;;;0.00;0.00;;;;;;;;;;5014996;28;21076;-88
2024/01/26 14:10:39;;;;;;;0.00;0.00;;;;;;;;;;4998350;28;20026;-88
2024/01/26 14:13:07;;;;;;;0.00;0.00;;;;;;;;;;5017608;28;20371;-91
2024/01/26 14:15:35;;;;;;;0.00;0.00;;;;;;;;;;5001512;28;20074;-91
2024/01/26 14:18:01;;;;;;;0.00;0.00;;;;;;;;;;5017634;28;20526;-91
2024/01/26 14:20:27;;;;;;;0.00;0.00;;;;;;;;;;4983824;28;20169;-89
2024/01/26 14:22:53;;;;;;;0.00;0.00;;;;;;;;;;4984354;28;20112;-90
2024/01/26 14:25:20;;;;;;;0.00;0.00;;;;;;;;;;4982961;28;20042;-87
2024/01/26 14:27:52;;;;;;;0.00;0.00;;;;;;;;;;5000501;28;20466;-87
2024/01/26 14:30:19;;;;;;;0.00;0.00;;;;;;;;;;4993402;28;20030;-90
2024/01/26 14:32:46;;;;;;;0.00;0.00;;;;;;;;;;4997953;28;20049;-90
2024/01/26 14:35:12;;;;;;;0.00;0.00;;;;;;;;;;4995829;28;20030;-88
2024/01/26 14:37:42;;;;;;;0.00;0.00;;;;;;;;;;4997174;28;20450;-87
2024/01/26 14:40:16;;;;;;;0.00;0.00;;;;;;;;;;4979492;28;20050;-87
2024/01/26 14:42:42;;;;;;;0.00;0.00;;;;;;;;;;4979616;28;20416;-90
2024/01/26 14:45:08;;;;;;;0.00;0.00;;;;;;;;;;4978385;28;20083;-88